sensor_id;sensor_type;location;lat;lon;timestamp;P1;durP1;ratioP1;P2;durP2;ratioP2
51714;SDS011;39115;59.332;18.034;2024-03-22T00:00:29;0.15;;;0.13;;
51714;SDS011;39115;59.332;18.034;2024-03-22T00:02:49;0.10;;;0.10;;
51714;SDS011;39115;59.332;18.034;2024-03-22T00:05:10;0.20;;;0.10;;
51714;SDS011;39115;59.332;18.034;2024-03-22T00:07:31;0.10;;;0.10;;
51714;SDS011;39115;59.332;18.034;2024-03-22T00:09:51;0.10;;;0.10;;
51714;SDS011;39115;59.332;18.034;2024-03-22T00:12:12;0.10;;;0.10;;
51714;SDS011;39115;59.332;18.034;2024-03-22T00:14:32;0.10;;;0.10;;
51714;SDS011;39115;59.332;18.034;2024-03-22T00:16:53;0.22;;;0.20;;
51714;SDS011;39115;59.332;18.034;2024-03-22T00:19:13;0.20;;;0.20;;
51714;SDS011;39115;59.332;18.034;2024-03-22T00:21:34;0.10;;;0.10;;
51714;SDS011;39115;59.332;18.034;2024-03-22T00:23:55;0.15;;;0.10;;
51714;SDS011;39115;59.332;18.034;2024-03-22T00:26:16;0.20;;;0.10;;
51714;SDS011;39115;59.332;18.034;2024-03-22T00:28:37;0.20;;;0.10;;
51714;SDS011;39115;59.332;18.034;2024-03-22T00:30:57;0.22;;;0.10;;
51714;SDS011;39115;59.332;18.034;2024-03-22T00:33:18;0.32;;;0.30;;
51714;SDS011;39115;59.332;18.034;2024-03-22T00:35:38;0.10;;;0.10;;
51714;SDS011;39115;59.332;18.034;2024-03-22T00:37:58;0.10;;;0.10;;
51714;SDS011;39115;59.332;18.034;2024-03-22T00:40:19;0.10;;;0.10;;
51714;SDS011;39115;59.332;18.034;2024-03-22T00:42:40;0.20;;;0.20;;
51714;SDS011;39115;59.332;18.034;2024-03-22T00:45:01;0.10;;;0.10;;
51714;SDS011;39115;59.332;18.034;2024-03-22T00:47:21;0.10;;;0.10;;
51714;SDS011;39115;59.332;18.034;2024-03-22T00:49:42;0.50;;;0.20;;
51714;SDS011;39115;59.332;18.034;2024-03-22T00:52:02;0.10;;;0.10;;
51714;SDS011;39115;59.332;18.034;2024-03-22T00:54:23;0.20;;;0.20;;
51714;SDS011;39115;59.332;18.034;2024-03-22T00:56:44;0.20;;;0.20;;
51714;SDS011;39115;59.332;18.034;2024-03-22T00:59:04;0.10;;;0.10;;
51714;SDS011;39115;59.332;18.034;2024-03-22T01:01:25;0.20;;;0.15;;
51714;SDS011;39115;59.332;18.034;2024-03-22T01:03:45;0.10;;;0.10;;
51714;SDS011;39115;59.332;18.034;2024-03-22T01:06:06;0.10;;;0.10;;
51714;SDS011;39115;59.332;18.034;2024-03-22T01:08:27;0.17;;;0.10;;
51714;SDS011;39115;59.332;18.034;2024-03-22T01:10:48;0.20;;;0.20;;
51714;SDS011;39115;59.332;18.034;2024-03-22T01:13:08;0.20;;;0.10;;
51714;SDS011;39115;59.332;18.034;2024-03-22T01:15:29;0.73;;;0.10;;
51714;SDS011;39115;59.332;18.034;2024-03-22T01:17:49;0.20;;;0.20;;
51714;SDS011;39115;59.332;18.034;2024-03-22T01:20:10;0.10;;;0.10;;
51714;SDS011;39115;59.332;18.034;2024-03-22T01:22:30;0.20;;;0.20;;
51714;SDS011;39115;59.332;18.034;2024-03-22T01:24:51;0.20;;;0.20;;
51714;SDS011;39115;59.332;18.034;2024-03-22T01:27:12;0.20;;;0.20;;
51714;SDS011;39115;59.332;18.034;2024-03-22T01:29:32;0.30;;;0.20;;
51714;SDS011;39115;59.332;18.034;2024-03-22T01:31:53;0.30;;;0.20;;
51714;SDS011;39115;59.332;18.034;2024-03-22T01:34:13;0.10;;;0.10;;
51714;SDS011;39115;59.332;18.034;2024-03-22T01:36:35;0.20;;;0.13;;
51714;SDS011;39115;59.332;18.034;2024-03-22T01:38:55;0.20;;;0.10;;
51714;SDS011;39115;59.332;18.034;2024-03-22T01:41:15;0.10;;;0.10;;
51714;SDS011;39115;59.332;18.034;2024-03-22T01:43:38;0.10;;;0.10;;
51714;SDS011;39115;59.332;18.034;2024-03-22T01:45:58;0.20;;;0.20;;
51714;SDS011;39115;59.332;18.034;2024-03-22T01:48:18;0.20;;;0.20;;
51714;SDS011;39115;59.332;18.034;2024-03-22T01:50:39;0.10;;;0.10;;
51714;SDS011;39115;59.332;18.034;2024-03-22T01:53:00;0.10;;;0.10;;
51714;SDS011;39115;59.332;18.034;2024-03-22T01:55:21;0.30;;;0.13;;
51714;SDS011;39115;59.332;18.034;2024-03-22T01:57:42;0.20;;;0.10;;
51714;SDS011;39115;59.332;18.034;2024-03-22T02:00:03;0.28;;;0.10;;
51714;SDS011;39115;59.332;18.034;2024-03-22T02:02:24;0.20;;;0.20;;
51714;SDS011;39115;59.332;18.034;2024-03-22T02:04:44;0.20;;;0.20;;
51714;SDS011;39115;59.332;18.034;2024-03-22T02:07:05;0.10;;;0.10;;
51714;SDS011;39115;59.332;18.034;2024-03-22T02:09:25;0.10;;;0.10;;
51714;SDS011;39115;59.332;18.034;2024-03-22T02:11:46;0.20;;;0.20;;
51714;SDS011;39115;59.332;18.034;2024-03-22T02:14:07;0.10;;;0.10;;
51714;SDS011;39115;59.332;18.034;2024-03-22T02:16:28;0.20;;;0.20;;
51714;SDS011;39115;59.332;18.034;2024-03-22T02:18:50;0.20;;;0.20;;
51714;SDS011;39115;59.332;18.034;2024-03-22T02:21:11;0.40;;;0.20;;
51714;SDS011;39115;59.332;18.034;2024-03-22T02:25:56;0.20;;;0.10;;
51714;SDS011;39115;59.332;18.034;2024-03-22T02:28:17;0.10;;;0.10;;
51714;SDS011;39115;59.332;18.034;2024-03-22T02:30:38;0.15;;;0.10;;
51714;SDS011;39115;59.332;18.034;2024-03-22T02:32:58;0.22;;;0.20;;
51714;SDS011;39115;59.332;18.034;2024-03-22T02:35:19;0.20;;;0.10;;
51714;SDS011;39115;59.332;18.034;2024-03-22T02:37:39;0.10;;;0.10;;
51714;SDS011;39115;59.332;18.034;2024-03-22T02:39:59;0.20;;;0.17;;
51714;SDS011;39115;59.332;18.034;2024-03-22T02:42:20;0.10;;;0.10;;
51714;SDS011;39115;59.332;18.034;2024-03-22T02:44:41;0.10;;;0.10;;
51714;SDS011;39115;59.332;18.034;2024-03-22T02:47:02;0.20;;;0.10;;
51714;SDS011;39115;59.332;18.034;2024-03-22T02:49:24;0.30;;;0.20;;
51714;SDS011;39115;59.332;18.034;2024-03-22T02:51:45;0.15;;;0.10;;
51714;SDS011;39115;59.332;18.034;2024-03-22T02:54:06;0.20;;;0.10;;
51714;SDS011;39115;59.332;18.034;2024-03-22T02:56:27;0.17;;;0.10;;
51714;SDS011;39115;59.332;18.034;2024-03-22T02:58:48;0.32;;;0.20;;
51714;SDS011;39115;59.332;18.034;2024-03-22T03:01:09;0.30;;;0.20;;
51714;SDS011;39115;59.332;18.034;2024-03-22T03:03:30;0.20;;;0.20;;
51714;SDS011;39115;59.332;18.034;2024-03-22T03:05:50;0.17;;;0.10;;
51714;SDS011;39115;59.332;18.034;2024-03-22T03:08:12;0.10;;;0.10;;
51714;SDS011;39115;59.332;18.034;2024-03-22T03:10:32;0.25;;;0.20;;
51714;SDS011;39115;59.332;18.034;2024-03-22T03:12:56;1.10;;;0.20;;
51714;SDS011;39115;59.332;18.034;2024-03-22T03:15:17;0.35;;;0.20;;
51714;SDS011;39115;59.332;18.034;2024-03-22T03:17:37;0.10;;;0.10;;
51714;SDS011;39115;59.332;18.034;2024-03-22T03:19:58;0.13;;;0.10;;
51714;SDS011;39115;59.332;18.034;2024-03-22T03:22:18;0.20;;;0.20;;
51714;SDS011;39115;59.332;18.034;2024-03-22T03:24:38;0.30;;;0.10;;
51714;SDS011;39115;59.332;18.034;2024-03-22T03:26:59;0.20;;;0.20;;
51714;SDS011;39115;59.332;18.034;2024-03-22T03:29:19;0.30;;;0.20;;
51714;SDS011;39115;59.332;18.034;2024-03-22T03:31:40;0.10;;;0.10;;
51714;SDS011;39115;59.332;18.034;2024-03-22T03:34:00;0.30;;;0.20;;
51714;SDS011;39115;59.332;18.034;2024-03-22T03:36:21;0.25;;;0.10;;
51714;SDS011;39115;59.332;18.034;2024-03-22T03:38:41;0.20;;;0.20;;
51714;SDS011;39115;59.332;18.034;2024-03-22T03:41:02;0.10;;;0.10;;
51714;SDS011;39115;59.332;18.034;2024-03-22T03:43:22;0.20;;;0.20;;
51714;SDS011;39115;59.332;18.034;2024-03-22T03:45:43;0.20;;;0.20;;
51714;SDS011;39115;59.332;18.034;2024-03-22T03:48:04;0.20;;;0.17;;
51714;SDS011;39115;59.332;18.034;2024-03-22T03:50:24;0.20;;;0.20;;
51714;SDS011;39115;59.332;18.034;2024-03-22T03:52:45;0.17;;;0.10;;
51714;SDS011;39115;59.332;18.034;2024-03-22T03:55:05;0.20;;;0.10;;
51714;SDS011;39115;59.332;18.034;2024-03-22T03:57:26;0.20;;;0.20;;
51714;SDS011;39115;59.332;18.034;2024-03-22T03:59:46;0.20;;;0.20;;
51714;SDS011;39115;59.332;18.034;2024-03-22T04:02:07;0.20;;;0.20;;
51714;SDS011;39115;59.332;18.034;2024-03-22T04:04:27;0.45;;;0.20;;
51714;SDS011;39115;59.332;18.034;2024-03-22T04:06:48;0.20;;;0.17;;
51714;SDS011;39115;59.332;18.034;2024-03-22T04:09:08;0.20;;;0.20;;
51714;SDS011;39115;59.332;18.034;2024-03-22T04:11:29;0.10;;;0.10;;
51714;SDS011;39115;59.332;18.034;2024-03-22T04:13:50;0.20;;;0.20;;
51714;SDS011;39115;59.332;18.034;2024-03-22T04:16:11;0.20;;;0.20;;
51714;SDS011;39115;59.332;18.034;2024-03-22T04:18:31;0.20;;;0.20;;
51714;SDS011;39115;59.332;18.034;2024-03-22T04:20:55;0.20;;;0.20;;
51714;SDS011;39115;59.332;18.034;2024-03-22T04:23:16;0.20;;;0.20;;
51714;SDS011;39115;59.332;18.034;2024-03-22T04:25:36;0.30;;;0.20;;
51714;SDS011;39115;59.332;18.034;2024-03-22T04:27:57;0.17;;;0.17;;
51714;SDS011;39115;59.332;18.034;2024-03-22T04:30:17;0.20;;;0.20;;
51714;SDS011;39115;59.332;18.034;2024-03-22T04:32:37;0.10;;;0.10;;
51714;SDS011;39115;59.332;18.034;2024-03-22T04:34:58;0.10;;;0.10;;
51714;SDS011;39115;59.332;18.034;2024-03-22T04:37:18;0.10;;;0.10;;
51714;SDS011;39115;59.332;18.034;2024-03-22T04:39:39;0.20;;;0.20;;
51714;SDS011;39115;59.332;18.034;2024-03-22T04:42:01;0.20;;;0.20;;
51714;SDS011;39115;59.332;18.034;2024-03-22T04:44:21;0.20;;;0.20;;
51714;SDS011;39115;59.332;18.034;2024-03-22T04:46:42;0.20;;;0.20;;
51714;SDS011;39115;59.332;18.034;2024-03-22T04:49:02;0.20;;;0.20;;
51714;SDS011;39115;59.332;18.034;2024-03-22T04:51:23;0.30;;;0.30;;
51714;SDS011;39115;59.332;18.034;2024-03-22T04:53:43;0.20;;;0.20;;
51714;SDS011;39115;59.332;18.034;2024-03-22T04:56:04;0.10;;;0.10;;
51714;SDS011;39115;59.332;18.034;2024-03-22T04:58:25;0.20;;;0.20;;
51714;SDS011;39115;59.332;18.034;2024-03-22T05:00:46;0.10;;;0.10;;
51714;SDS011;39115;59.332;18.034;2024-03-22T05:03:08;0.20;;;0.10;;
51714;SDS011;39115;59.332;18.034;2024-03-22T05:05:28;0.30;;;0.20;;
51714;SDS011;39115;59.332;18.034;2024-03-22T05:07:49;0.20;;;0.20;;
51714;SDS011;39115;59.332;18.034;2024-03-22T05:10:09;0.20;;;0.20;;
51714;SDS011;39115;59.332;18.034;2024-03-22T05:12:30;0.60;;;0.20;;
51714;SDS011;39115;59.332;18.034;2024-03-22T05:14:51;0.20;;;0.20;;
51714;SDS011;39115;59.332;18.034;2024-03-22T05:17:11;0.30;;;0.20;;
51714;SDS011;39115;59.332;18.034;2024-03-22T05:19:32;0.20;;;0.20;;
51714;SDS011;39115;59.332;18.034;2024-03-22T05:21:52;0.20;;;0.20;;
51714;SDS011;39115;59.332;18.034;2024-03-22T05:24:13;0.20;;;0.20;;
51714;SDS011;39115;59.332;18.034;2024-03-22T05:26:33;0.20;;;0.15;;
51714;SDS011;39115;59.332;18.034;2024-03-22T05:28:56;0.20;;;0.20;;
51714;SDS011;39115;59.332;18.034;2024-03-22T05:31:17;0.20;;;0.20;;
51714;SDS011;39115;59.332;18.034;2024-03-22T05:33:37;0.20;;;0.20;;
51714;SDS011;39115;59.332;18.034;2024-03-22T05:35:58;0.20;;;0.20;;
51714;SDS011;39115;59.332;18.034;2024-03-22T05:38:19;0.20;;;0.20;;
51714;SDS011;39115;59.332;18.034;2024-03-22T05:40:39;0.35;;;0.20;;
51714;SDS011;39115;59.332;18.034;2024-03-22T05:43:00;0.20;;;0.20;;
51714;SDS011;39115;59.332;18.034;2024-03-22T05:45:21;0.30;;;0.20;;
51714;SDS011;39115;59.332;18.034;2024-03-22T05:47:42;0.43;;;0.20;;
51714;SDS011;39115;59.332;18.034;2024-03-22T05:50:02;0.10;;;0.10;;
51714;SDS011;39115;59.332;18.034;2024-03-22T05:52:23;0.20;;;0.20;;
51714;SDS011;39115;59.332;18.034;2024-03-22T05:54:43;0.55;;;0.20;;
51714;SDS011;39115;59.332;18.034;2024-03-22T05:57:04;0.20;;;0.20;;
51714;SDS011;39115;59.332;18.034;2024-03-22T05:59:25;0.35;;;0.30;;
51714;SDS011;39115;59.332;18.034;2024-03-22T06:01:45;0.25;;;0.20;;
51714;SDS011;39115;59.332;18.034;2024-03-22T06:04:09;0.20;;;0.20;;
51714;SDS011;39115;59.332;18.034;2024-03-22T06:06:30;0.25;;;0.20;;
51714;SDS011;39115;59.332;18.034;2024-03-22T06:08:50;0.20;;;0.20;;
51714;SDS011;39115;59.332;18.034;2024-03-22T06:11:13;0.25;;;0.22;;
51714;SDS011;39115;59.332;18.034;2024-03-22T06:13:34;0.50;;;0.30;;
51714;SDS011;39115;59.332;18.034;2024-03-22T06:15:56;0.30;;;0.25;;
51714;SDS011;39115;59.332;18.034;2024-03-22T06:18:16;0.30;;;0.20;;
51714;SDS011;39115;59.332;18.034;2024-03-22T06:20:37;0.20;;;0.20;;
51714;SDS011;39115;59.332;18.034;2024-03-22T06:22:57;0.20;;;0.17;;
51714;SDS011;39115;59.332;18.034;2024-03-22T06:25:18;0.30;;;0.20;;
51714;SDS011;39115;59.332;18.034;2024-03-22T06:27:38;0.20;;;0.20;;
51714;SDS011;39115;59.332;18.034;2024-03-22T06:29:59;0.20;;;0.20;;
51714;SDS011;39115;59.332;18.034;2024-03-22T06:32:19;0.20;;;0.20;;
51714;SDS011;39115;59.332;18.034;2024-03-22T06:34:40;0.20;;;0.20;;
51714;SDS011;39115;59.332;18.034;2024-03-22T06:37:00;0.20;;;0.20;;
51714;SDS011;39115;59.332;18.034;2024-03-22T06:39:20;0.30;;;0.20;;
51714;SDS011;39115;59.332;18.034;2024-03-22T06:41:41;0.20;;;0.20;;
51714;SDS011;39115;59.332;18.034;2024-03-22T06:44:01;0.30;;;0.20;;
51714;SDS011;39115;59.332;18.034;2024-03-22T06:46:22;0.22;;;0.20;;
51714;SDS011;39115;59.332;18.034;2024-03-22T06:48:43;0.20;;;0.20;;
51714;SDS011;39115;59.332;18.034;2024-03-22T06:51:03;0.40;;;0.30;;
51714;SDS011;39115;59.332;18.034;2024-03-22T06:53:24;0.20;;;0.20;;
51714;SDS011;39115;59.332;18.034;2024-03-22T06:55:45;0.30;;;0.30;;
51714;SDS011;39115;59.332;18.034;2024-03-22T06:58:05;0.28;;;0.20;;
51714;SDS011;39115;59.332;18.034;2024-03-22T07:00:26;0.50;;;0.28;;
51714;SDS011;39115;59.332;18.034;2024-03-22T07:02:46;0.40;;;0.30;;
51714;SDS011;39115;59.332;18.034;2024-03-22T07:05:07;0.30;;;0.20;;
51714;SDS011;39115;59.332;18.034;2024-03-22T07:07:28;0.25;;;0.20;;
51714;SDS011;39115;59.332;18.034;2024-03-22T07:09:49;0.20;;;0.20;;
51714;SDS011;39115;59.332;18.034;2024-03-22T07:12:09;0.30;;;0.30;;
51714;SDS011;39115;59.332;18.034;2024-03-22T07:14:29;0.28;;;0.28;;
51714;SDS011;39115;59.332;18.034;2024-03-22T07:16:50;0.25;;;0.20;;
51714;SDS011;39115;59.332;18.034;2024-03-22T07:19:13;0.28;;;0.20;;
51714;SDS011;39115;59.332;18.034;2024-03-22T07:21:34;0.30;;;0.20;;
51714;SDS011;39115;59.332;18.034;2024-03-22T07:23:54;0.35;;;0.30;;
51714;SDS011;39115;59.332;18.034;2024-03-22T07:26:15;0.17;;;0.17;;
51714;SDS011;39115;59.332;18.034;2024-03-22T07:28:35;0.63;;;0.38;;
51714;SDS011;39115;59.332;18.034;2024-03-22T07:30:56;0.30;;;0.30;;
51714;SDS011;39115;59.332;18.034;2024-03-22T07:33:16;0.30;;;0.30;;
51714;SDS011;39115;59.332;18.034;2024-03-22T07:35:37;0.30;;;0.20;;
51714;SDS011;39115;59.332;18.034;2024-03-22T07:37:58;0.20;;;0.20;;
51714;SDS011;39115;59.332;18.034;2024-03-22T07:40:18;0.38;;;0.30;;
51714;SDS011;39115;59.332;18.034;2024-03-22T07:42:40;0.20;;;0.20;;
51714;SDS011;39115;59.332;18.034;2024-03-22T07:45:00;0.40;;;0.30;;
51714;SDS011;39115;59.332;18.034;2024-03-22T07:47:21;0.30;;;0.20;;
51714;SDS011;39115;59.332;18.034;2024-03-22T07:49:42;0.20;;;0.20;;
51714;SDS011;39115;59.332;18.034;2024-03-22T07:52:02;0.85;;;0.30;;
51714;SDS011;39115;59.332;18.034;2024-03-22T07:54:24;0.22;;;0.22;;
51714;SDS011;39115;59.332;18.034;2024-03-22T07:56:44;0.30;;;0.28;;
51714;SDS011;39115;59.332;18.034;2024-03-22T07:59:05;0.20;;;0.20;;
51714;SDS011;39115;59.332;18.034;2024-03-22T08:01:25;0.20;;;0.20;;
51714;SDS011;39115;59.332;18.034;2024-03-22T08:03:46;0.30;;;0.30;;
51714;SDS011;39115;59.332;18.034;2024-03-22T08:06:06;0.30;;;0.25;;
51714;SDS011;39115;59.332;18.034;2024-03-22T08:08:27;0.20;;;0.20;;
51714;SDS011;39115;59.332;18.034;2024-03-22T08:10:47;0.30;;;0.22;;
51714;SDS011;39115;59.332;18.034;2024-03-22T08:13:08;0.20;;;0.20;;
51714;SDS011;39115;59.332;18.034;2024-03-22T08:15:28;0.30;;;0.30;;
51714;SDS011;39115;59.332;18.034;2024-03-22T08:17:50;0.30;;;0.30;;
51714;SDS011;39115;59.332;18.034;2024-03-22T08:20:10;0.30;;;0.30;;
51714;SDS011;39115;59.332;18.034;2024-03-22T08:22:31;0.30;;;0.20;;
51714;SDS011;39115;59.332;18.034;2024-03-22T08:24:51;0.30;;;0.30;;
51714;SDS011;39115;59.332;18.034;2024-03-22T08:27:12;0.20;;;0.20;;
51714;SDS011;39115;59.332;18.034;2024-03-22T08:29:32;0.40;;;0.30;;
51714;SDS011;39115;59.332;18.034;2024-03-22T08:31:53;0.32;;;0.30;;
51714;SDS011;39115;59.332;18.034;2024-03-22T08:34:13;0.32;;;0.28;;
51714;SDS011;39115;59.332;18.034;2024-03-22T08:36:34;0.38;;;0.30;;
51714;SDS011;39115;59.332;18.034;2024-03-22T08:38:54;0.30;;;0.28;;
51714;SDS011;39115;59.332;18.034;2024-03-22T08:41:15;0.30;;;0.30;;
51714;SDS011;39115;59.332;18.034;2024-03-22T08:43:35;0.38;;;0.30;;
51714;SDS011;39115;59.332;18.034;2024-03-22T08:45:56;0.75;;;0.30;;
51714;SDS011;39115;59.332;18.034;2024-03-22T08:48:16;0.22;;;0.20;;
51714;SDS011;39115;59.332;18.034;2024-03-22T08:50:37;0.38;;;0.30;;
51714;SDS011;39115;59.332;18.034;2024-03-22T08:52:58;0.35;;;0.30;;
51714;SDS011;39115;59.332;18.034;2024-03-22T08:55:18;0.40;;;0.30;;
51714;SDS011;39115;59.332;18.034;2024-03-22T08:57:38;0.30;;;0.30;;
51714;SDS011;39115;59.332;18.034;2024-03-22T08:59:59;0.30;;;0.30;;
51714;SDS011;39115;59.332;18.034;2024-03-22T09:02:19;0.30;;;0.20;;
51714;SDS011;39115;59.332;18.034;2024-03-22T09:04:40;0.30;;;0.30;;
51714;SDS011;39115;59.332;18.034;2024-03-22T09:07:00;0.40;;;0.35;;
51714;SDS011;39115;59.332;18.034;2024-03-22T09:09:21;0.22;;;0.20;;
51714;SDS011;39115;59.332;18.034;2024-03-22T09:11:41;0.25;;;0.20;;
51714;SDS011;39115;59.332;18.034;2024-03-22T09:14:02;0.20;;;0.20;;
51714;SDS011;39115;59.332;18.034;2024-03-22T09:16:23;0.68;;;0.22;;
51714;SDS011;39115;59.332;18.034;2024-03-22T09:18:44;0.30;;;0.30;;
51714;SDS011;39115;59.332;18.034;2024-03-22T09:21:04;0.30;;;0.30;;
51714;SDS011;39115;59.332;18.034;2024-03-22T09:23:25;0.30;;;0.30;;
51714;SDS011;39115;59.332;18.034;2024-03-22T09:25:48;0.30;;;0.30;;
51714;SDS011;39115;59.332;18.034;2024-03-22T09:28:08;0.30;;;0.30;;
51714;SDS011;39115;59.332;18.034;2024-03-22T09:30:29;0.20;;;0.20;;
51714;SDS011;39115;59.332;18.034;2024-03-22T09:32:49;0.50;;;0.30;;
51714;SDS011;39115;59.332;18.034;2024-03-22T09:35:11;0.30;;;0.28;;
51714;SDS011;39115;59.332;18.034;2024-03-22T09:37:34;0.22;;;0.22;;
51714;SDS011;39115;59.332;18.034;2024-03-22T09:39:55;0.40;;;0.35;;
51714;SDS011;39115;59.332;18.034;2024-03-22T09:42:16;0.30;;;0.30;;
51714;SDS011;39115;59.332;18.034;2024-03-22T09:44:40;0.50;;;0.30;;
51714;SDS011;39115;59.332;18.034;2024-03-22T09:47:04;0.30;;;0.30;;
51714;SDS011;39115;59.332;18.034;2024-03-22T09:49:25;0.40;;;0.40;;
51714;SDS011;39115;59.332;18.034;2024-03-22T09:51:45;0.47;;;0.30;;
51714;SDS011;39115;59.332;18.034;2024-03-22T09:54:08;0.40;;;0.30;;
51714;SDS011;39115;59.332;18.034;2024-03-22T09:56:30;1.02;;;0.50;;
51714;SDS011;39115;59.332;18.034;2024-03-22T09:58:51;0.40;;;0.35;;
51714;SDS011;39115;59.332;18.034;2024-03-22T10:01:12;0.30;;;0.30;;
51714;SDS011;39115;59.332;18.034;2024-03-22T10:03:33;1.35;;;0.35;;
51714;SDS011;39115;59.332;18.034;2024-03-22T10:05:53;0.43;;;0.30;;
51714;SDS011;39115;59.332;18.034;2024-03-22T10:08:14;0.28;;;0.28;;
51714;SDS011;39115;59.332;18.034;2024-03-22T10:10:34;0.45;;;0.45;;
51714;SDS011;39115;59.332;18.034;2024-03-22T10:12:55;0.30;;;0.30;;
51714;SDS011;39115;59.332;18.034;2024-03-22T10:15:15;0.30;;;0.30;;
51714;SDS011;39115;59.332;18.034;2024-03-22T10:17:37;0.30;;;0.30;;
51714;SDS011;39115;59.332;18.034;2024-03-22T10:19:59;0.47;;;0.32;;
51714;SDS011;39115;59.332;18.034;2024-03-22T10:22:19;0.50;;;0.32;;
51714;SDS011;39115;59.332;18.034;2024-03-22T10:24:39;0.40;;;0.30;;
51714;SDS011;39115;59.332;18.034;2024-03-22T10:27:00;0.30;;;0.30;;
51714;SDS011;39115;59.332;18.034;2024-03-22T10:29:21;0.32;;;0.30;;
51714;SDS011;39115;59.332;18.034;2024-03-22T10:31:45;1.20;;;0.50;;
51714;SDS011;39115;59.332;18.034;2024-03-22T10:34:07;0.50;;;0.40;;
51714;SDS011;39115;59.332;18.034;2024-03-22T10:36:29;0.50;;;0.40;;
51714;SDS011;39115;59.332;18.034;2024-03-22T10:38:51;0.30;;;0.30;;
51714;SDS011;39115;59.332;18.034;2024-03-22T10:41:14;0.57;;;0.40;;
51714;SDS011;39115;59.332;18.034;2024-03-22T10:43:35;0.30;;;0.30;;
51714;SDS011;39115;59.332;18.034;2024-03-22T10:45:56;0.45;;;0.38;;
51714;SDS011;39115;59.332;18.034;2024-03-22T10:48:21;0.30;;;0.22;;
51714;SDS011;39115;59.332;18.034;2024-03-22T10:50:44;0.65;;;0.30;;
51714;SDS011;39115;59.332;18.034;2024-03-22T10:53:06;0.43;;;0.40;;
51714;SDS011;39115;59.332;18.034;2024-03-22T10:55:32;0.30;;;0.30;;
51714;SDS011;39115;59.332;18.034;2024-03-22T10:57:56;0.50;;;0.50;;
51714;SDS011;39115;59.332;18.034;2024-03-22T11:00:17;0.40;;;0.40;;
51714;SDS011;39115;59.332;18.034;2024-03-22T11:02:47;0.30;;;0.30;;
51714;SDS011;39115;59.332;18.034;2024-03-22T11:05:08;0.50;;;0.40;;
51714;SDS011;39115;59.332;18.034;2024-03-22T11:07:38;0.40;;;0.40;;
51714;SDS011;39115;59.332;18.034;2024-03-22T11:10:01;0.30;;;0.30;;
51714;SDS011;39115;59.332;18.034;2024-03-22T11:12:27;0.30;;;0.30;;
51714;SDS011;39115;59.332;18.034;2024-03-22T11:14:52;0.45;;;0.45;;
51714;SDS011;39115;59.332;18.034;2024-03-22T11:17:13;0.30;;;0.30;;
51714;SDS011;39115;59.332;18.034;2024-03-22T11:19:34;0.40;;;0.35;;
51714;SDS011;39115;59.332;18.034;2024-03-22T11:21:57;0.35;;;0.30;;
51714;SDS011;39115;59.332;18.034;2024-03-22T11:24:17;0.50;;;0.45;;
51714;SDS011;39115;59.332;18.034;2024-03-22T11:26:38;0.50;;;0.40;;
51714;SDS011;39115;59.332;18.034;2024-03-22T11:28:59;0.40;;;0.38;;
51714;SDS011;39115;59.332;18.034;2024-03-22T11:31:20;0.30;;;0.30;;
51714;SDS011;39115;59.332;18.034;2024-03-22T11:33:45;1.15;;;0.30;;
51714;SDS011;39115;59.332;18.034;2024-03-22T11:36:06;0.40;;;0.30;;
51714;SDS011;39115;59.332;18.034;2024-03-22T11:38:26;0.30;;;0.30;;
51714;SDS011;39115;59.332;18.034;2024-03-22T11:40:47;0.45;;;0.30;;
51714;SDS011;39115;59.332;18.034;2024-03-22T11:43:08;0.40;;;0.30;;
51714;SDS011;39115;59.332;18.034;2024-03-22T11:45:30;0.30;;;0.30;;
51714;SDS011;39115;59.332;18.034;2024-03-22T11:47:53;0.38;;;0.38;;
51714;SDS011;39115;59.332;18.034;2024-03-22T11:50:14;0.30;;;0.20;;
51714;SDS011;39115;59.332;18.034;2024-03-22T11:52:35;0.30;;;0.30;;
51714;SDS011;39115;59.332;18.034;2024-03-22T11:54:56;0.40;;;0.30;;
51714;SDS011;39115;59.332;18.034;2024-03-22T11:57:17;0.75;;;0.50;;
51714;SDS011;39115;59.332;18.034;2024-03-22T11:59:40;0.63;;;0.30;;
51714;SDS011;39115;59.332;18.034;2024-03-22T12:02:00;1.15;;;0.43;;
51714;SDS011;39115;59.332;18.034;2024-03-22T12:04:22;0.98;;;0.30;;
51714;SDS011;39115;59.332;18.034;2024-03-22T12:06:43;0.30;;;0.30;;
51714;SDS011;39115;59.332;18.034;2024-03-22T12:09:05;0.52;;;0.32;;
51714;SDS011;39115;59.332;18.034;2024-03-22T12:11:25;0.30;;;0.30;;
51714;SDS011;39115;59.332;18.034;2024-03-22T12:13:46;0.25;;;0.20;;
51714;SDS011;39115;59.332;18.034;2024-03-22T12:16:07;0.40;;;0.40;;
51714;SDS011;39115;59.332;18.034;2024-03-22T12:18:27;0.30;;;0.30;;
51714;SDS011;39115;59.332;18.034;2024-03-22T12:20:48;0.40;;;0.40;;
51714;SDS011;39115;59.332;18.034;2024-03-22T12:23:08;0.40;;;0.30;;
51714;SDS011;39115;59.332;18.034;2024-03-22T12:25:29;0.50;;;0.30;;
51714;SDS011;39115;59.332;18.034;2024-03-22T12:27:49;0.30;;;0.30;;
51714;SDS011;39115;59.332;18.034;2024-03-22T12:30:10;0.82;;;0.30;;
51714;SDS011;39115;59.332;18.034;2024-03-22T12:32:31;0.40;;;0.30;;
51714;SDS011;39115;59.332;18.034;2024-03-22T12:34:51;0.50;;;0.30;;
51714;SDS011;39115;59.332;18.034;2024-03-22T12:37:12;0.40;;;0.40;;
51714;SDS011;39115;59.332;18.034;2024-03-22T12:39:33;1.77;;;0.30;;
51714;SDS011;39115;59.332;18.034;2024-03-22T12:41:55;0.77;;;0.30;;
51714;SDS011;39115;59.332;18.034;2024-03-22T12:44:15;0.30;;;0.30;;
51714;SDS011;39115;59.332;18.034;2024-03-22T12:46:36;0.30;;;0.30;;
51714;SDS011;39115;59.332;18.034;2024-03-22T12:48:56;0.40;;;0.20;;
51714;SDS011;39115;59.332;18.034;2024-03-22T12:51:17;0.32;;;0.30;;
51714;SDS011;39115;59.332;18.034;2024-03-22T12:53:37;0.40;;;0.40;;
51714;SDS011;39115;59.332;18.034;2024-03-22T12:55:58;0.20;;;0.20;;
51714;SDS011;39115;59.332;18.034;2024-03-22T12:58:18;0.25;;;0.20;;
51714;SDS011;39115;59.332;18.034;2024-03-22T13:00:39;0.35;;;0.30;;
51714;SDS011;39115;59.332;18.034;2024-03-22T13:02:59;0.30;;;0.30;;
51714;SDS011;39115;59.332;18.034;2024-03-22T13:05:20;0.30;;;0.30;;
51714;SDS011;39115;59.332;18.034;2024-03-22T13:07:41;0.40;;;0.32;;
51714;SDS011;39115;59.332;18.034;2024-03-22T13:10:02;0.38;;;0.30;;
51714;SDS011;39115;59.332;18.034;2024-03-22T13:12:22;0.40;;;0.30;;
51714;SDS011;39115;59.332;18.034;2024-03-22T13:14:43;0.40;;;0.30;;
51714;SDS011;39115;59.332;18.034;2024-03-22T13:17:04;0.40;;;0.30;;
51714;SDS011;39115;59.332;18.034;2024-03-22T13:19:24;0.30;;;0.30;;
51714;SDS011;39115;59.332;18.034;2024-03-22T13:21:45;0.40;;;0.30;;
51714;SDS011;39115;59.332;18.034;2024-03-22T13:24:08;0.40;;;0.30;;
51714;SDS011;39115;59.332;18.034;2024-03-22T13:26:30;0.30;;;0.30;;
51714;SDS011;39115;59.332;18.034;2024-03-22T13:28:50;0.50;;;0.30;;
51714;SDS011;39115;59.332;18.034;2024-03-22T13:31:11;0.40;;;0.40;;
51714;SDS011;39115;59.332;18.034;2024-03-22T13:33:35;0.40;;;0.28;;
51714;SDS011;39115;59.332;18.034;2024-03-22T13:35:57;0.30;;;0.30;;
51714;SDS011;39115;59.332;18.034;2024-03-22T13:38:17;0.65;;;0.30;;
51714;SDS011;39115;59.332;18.034;2024-03-22T13:40:38;0.80;;;0.30;;
51714;SDS011;39115;59.332;18.034;2024-03-22T13:43:00;0.38;;;0.38;;
51714;SDS011;39115;59.332;18.034;2024-03-22T13:45:20;0.50;;;0.40;;
51714;SDS011;39115;59.332;18.034;2024-03-22T13:47:41;0.30;;;0.25;;
51714;SDS011;39115;59.332;18.034;2024-03-22T13:50:02;0.30;;;0.30;;
51714;SDS011;39115;59.332;18.034;2024-03-22T13:52:23;0.25;;;0.22;;
51714;SDS011;39115;59.332;18.034;2024-03-22T13:54:44;0.20;;;0.20;;
51714;SDS011;39115;59.332;18.034;2024-03-22T13:57:05;0.35;;;0.22;;